Dallas City, IL (62330)

2:15 PM CST on December 21, 2014 (GMT -0600)
Chem Gro Inc. | Change Station
CLOSE
Current Station
Personal Weather Station
Location: Adrian, IL
Elevation: 705 ft
Nearby Weather Stations

Elev 705 ft 40.52 °N, 91.17 °W | Updated 5 seconds ago

Overcast
Overcast
43.0 °F
Feels Like 34 °F
N
22.8
Wind Variable Wind from SSE
Gusts 22.8 mph

Today
High -- | Low -- °F
--% Chance of Precip.
Yesterday
High -- | Low -- °F
Precip. -- in
7:24 AM 4:40 PM
Waning Crescent, 0% visible
Pressure 29.96 in
Visibility 10.0 miles
Clouds Scattered Clouds 1600 ft
Scattered Clouds 2200 ft
Overcast 3800 ft
Windchill 34 °F
Dew Point 37 °F
Humidity 80%
Rainfall 0.00 in
Snow Depth Not available.
UV 0 out of 12
Pollen .10 out of 12
Air Quality Not available.
Flu Activity Not available.
METAR KFSW 211955Z AUTO 15011G16KT 10SM SCT016 SCT022 OVC038 07/04 A2996 RMK AO2

More Conditions Fewer Conditions

Pressure 29.96 in
Visibility 10.0 miles
Clouds Scattered Clouds 1600 ft
Scattered Clouds 2200 ft
Overcast 3800 ft
Windchill 34 °F
Dew Point 37 °F
Humidity 80%
Rainfall 0.00 in
Snow Depth Not available.
UV 0 out of 12
Pollen .10 out of 12
Air Quality Not available.
Flu Activity Not available.
METAR KFSW 211955Z AUTO 15011G16KT 10SM SCT016 SCT022 OVC038 07/04 A2996 RMK AO2

More Conditions Fewer Conditions

10-Day Weather Forecast

Almanac

Astronomy

Dec. 21, 2014 Rise Set
Actual Time
Civil Twilight
Nautical Twilight
Astronomical Twilight
Moon
Length of Visible Light
Length of Day
Tomorrow will be .
, % of the Moon is Illuminated

Today's Extremes

State Highs State Lows

Community

WunderPhotos

Upload Photos

1,779,469 photos uploaded!

WunderBlogs® & News

Nearby

Air Quality

  Air Quality AQ Index Pollutant
Not available.

Snow Depth

Station Depth Elevation

Earthquake Activity

City Distance Mag. Time & Date
Minimum magnitude displayed is 2.5.

Coastal Water Temperatures

Place Temperature

Nearby Weather Stations